首页
METAR-TAF:

METAR-TAF

机场 :

特倫頓空軍基地

特伦顿, 安大略省, 加拿大

纬度: 44-07N, 经度: 077-32W, 海拔: 85米

当前天气观测

该预报发布于32分钟前的11:00 UTC
风速4节,风向,在东北东转东南之间变化
温度 16°C
湿度 94%
气压 1009 hPa
能見度: 24.1公里
少量云层高于700英尺
多云层高于3500英尺
多云层高于14000英尺

METAR: CYTR 011100Z 08004KT 040V120 15SM FEW007 BKN035 BKN140 16/15 A2981 RMK SF1SC5AC1 SLP097

时间: 07:32 (11:32 UTC)

预报

该预报发布于3小时和37分钟前的07:55 UTC
预报有效从01日的 07点(UTC)到 02日的 06点(UTC)
风速3节,风向多变
能見度: 10公里
阴天层高于3000英尺
短暂存在
从 01日的 07点(UTC)到 01日的 12点(UTC)
能見度: 4.8公里
多云层高于1000英尺
阴天层高于3000英尺
小阵雨, 轻雾
成为
从 01日的 08点(UTC)到 01日的 10点(UTC)
风速5节,风向南转西南
从 01日的 1200点(UTC)
风速5节,风向西
能見度: 10公里
散云层高于1500英尺
阴天层高于2500英尺
小阵雨
短暂存在
从 01日的 12点(UTC)到 01日的 19点(UTC)
能見度: 8.0公里
多云层高于1500英尺
阴天层高于2500英尺
小阵雨, 轻雾
从 01日的 1900点(UTC)
风速5节,风向西
能見度: 8.0公里
阴天层高于1500英尺
小阵雨, 轻雾
几率 30%
从 01日的 19点(UTC)到 02日的 02点(UTC)
能見度: 3.2公里
多云层高于800英尺
阴天层高于1500英尺, 积雨云.
雷暴, 雨, 轻雾
从 02日的 0400点(UTC)
风速8节,风向
能見度: 10公里
多云层高于3000英尺
阴天层高于5000英尺

TAF: CYTR 010755Z 0107/0206 VRB03KT P6SM OVC030 TEMPO 0107/0112 3SM -SHRA BR BKN010 OVC030 BECMG 0108/0110 20005KT FM011200 28005KT P6SM -SHRA SCT015 OVC025 TEMPO 0112/0119 5SM -SHRA BR BKN015 OVC025 FM011900 28005KT 5SM -SHRA BR OVC015 PROB30 0119/0202 2SM TSRA BR BKN008 OVC015CB FM020400 36008KT P6SM BKN030 OVC050 RMK FCST BASED ON AUTO OBS 010600-011000Z. NXT FCST BY 011200Z

超过4000个机场的气象观测和天气预报(METAR&TAF报告)。

可查询的气象台以黄色和红色小点在地图上表示。

将鼠标移到小点上方,可查看气象台名称。

然后点击查看天气观测和预报。

如需切换地图:点击带黑十字的绿色按钮放大地图;点击带横线的绿色按钮缩小地图;或者点击绿色箭头查看邻近地区的地图。


METAR-TAF: